Time;durP1;ratioP1;P1;durP2;ratioP2;P2;SDS_P1;SDS_P2;PMS_P1;PMS_P2;Temp;Humidity;BMP_temperature;BMP_pressure;BME280_temperature;BME280_humidity;BME280_pressure;Samples;Min_cycle;Max_cycle;Signal;HPM_P1;HPM_P2
2023/06/10 00:02:03;;;;;;;11.70;5.20;;;15.80;99.90;;;;;;5079377;28;20032;-82
2023/06/10 00:04:29;;;;;;;12.02;4.55;;;15.70;99.90;;;;;;5079176;28;20025;-82
2023/06/10 00:06:55;;;;;;;9.45;4.50;;;15.70;99.90;;;;;;5083031;28;20469;-82
2023/06/10 00:09:21;;;;;;;14.27;5.78;;;15.60;99.90;;;;;;5078927;28;20511;-82
2023/06/10 00:11:47;;;;;;;11.75;5.30;;;15.60;99.90;;;;;;5078470;28;20314;-81
2023/06/10 00:14:13;;;;;;;9.25;4.40;;;15.60;99.90;;;;;;5076474;28;20027;-81
2023/06/10 00:16:39;;;;;;;14.57;5.22;;;15.60;99.90;;;;;;5082898;28;20054;-82
2023/06/10 00:19:04;;;;;;;9.30;4.82;;;15.50;99.90;;;;;;5083284;28;20036;-82
2023/06/10 00:21:39;;;;;;;10.25;5.63;;;15.60;99.90;;;;;;5080759;28;20037;-81
2023/06/10 00:24:06;;;;;;;11.70;5.25;;;15.50;99.90;;;;;;5082951;28;20107;-82
2023/06/10 00:26:33;;;;;;;8.02;4.75;;;15.50;99.90;;;;;;5078403;28;20036;-82
2023/06/10 00:28:59;;;;;;;10.90;5.40;;;15.40;99.90;;;;;;5077984;28;20028;-81
2023/06/10 00:31:26;;;;;;;9.25;5.55;;;15.40;99.90;;;;;;5066316;28;20526;-81
2023/06/10 00:33:52;;;;;;;9.60;4.80;;;15.40;99.90;;;;;;5086990;28;20028;-82
2023/06/10 00:36:18;;;;;;;10.63;5.03;;;15.30;99.90;;;;;;5088739;28;20022;-81
2023/06/10 00:38:43;;;;;;;10.18;5.18;;;15.30;99.90;;;;;;5086742;28;20028;-82
2023/06/10 00:41:09;;;;;;;13.85;4.82;;;15.30;99.90;;;;;;5087945;28;20028;-81
2023/06/10 00:43:35;;;;;;;10.40;5.10;;;15.30;99.90;;;;;;5087337;28;20489;-82
2023/06/10 00:46:01;;;;;;;7.18;4.55;;;15.20;99.90;;;;;;5087795;28;20028;-81
2023/06/10 00:48:27;;;;;;;7.70;4.93;;;15.10;99.90;;;;;;5084180;28;20036;-81
2023/06/10 00:50:53;;;;;;;9.82;4.85;;;15.10;99.90;;;;;;5078860;28;20067;-82
2023/06/10 00:53:20;;;;;;;9.02;4.47;;;15.10;99.90;;;;;;5087600;28;20539;-82
2023/06/10 00:55:46;;;;;;;11.00;5.22;;;15.00;99.90;;;;;;5083181;28;20051;-82
2023/06/10 00:58:12;;;;;;;11.50;5.22;;;15.00;99.90;;;;;;5088829;28;20024;-82
2023/06/10 01:00:38;;;;;;;11.05;4.15;;;15.00;99.90;;;;;;5084536;28;20077;-82
2023/06/10 01:03:08;;;;;;;14.68;4.90;;;15.00;99.90;;;;;;5085926;28;20063;-82
2023/06/10 01:05:36;;;;;;;16.35;5.53;;;14.90;99.90;;;;;;5079110;28;20025;-82
2023/06/10 01:08:07;;;;;;;15.10;5.65;;;14.90;99.90;;;;;;5075149;28;20453;-82
2023/06/10 01:10:35;;;;;;;7.68;4.32;;;14.90;99.90;;;;;;5082962;28;20078;-81
2023/06/10 01:13:06;;;;;;;14.07;6.28;;;14.90;99.90;;;;;;5075666;28;20043;-81
2023/06/10 01:15:34;;;;;;;11.00;5.13;;;14.90;99.90;;;;;;5083353;28;20082;-81
2023/06/10 01:18:04;;;;;;;14.10;5.30;;;14.80;99.90;;;;;;5085658;28;20024;-81
2023/06/10 01:20:33;;;;;;;12.20;5.15;;;14.80;99.90;;;;;;5085224;28;20027;-81
2023/06/10 01:23:00;;;;;;;14.60;5.25;;;14.80;99.90;;;;;;5083354;28;20357;-82
2023/06/10 01:25:27;;;;;;;14.45;5.60;;;14.70;99.90;;;;;;5084087;28;20500;-82
2023/06/10 01:28:12;;;;;;;9.88;4.93;;;14.70;99.90;;;;;;5079092;28;20473;-82
2023/06/10 01:30:55;;;;;;;8.43;4.28;;;14.70;99.90;;;;;;5086928;28;20477;-82
2023/06/10 01:33:29;;;;;;;10.43;4.78;;;14.70;99.90;;;;;;5085374;28;20063;-82
2023/06/10 01:36:01;;;;;;;16.20;5.30;;;14.70;99.90;;;;;;5085139;28;20114;-82
2023/06/10 01:38:27;;;;;;;10.93;4.78;;;14.70;99.90;;;;;;5084021;28;20020;-82
2023/06/10 01:40:55;;;;;;;9.82;4.25;;;14.70;99.90;;;;;;5083848;28;20119;-82
2023/06/10 01:43:21;;;;;;;12.63;5.05;;;14.70;99.90;;;;;;5086947;28;20032;-82
2023/06/10 01:45:46;;;;;;;13.35;5.47;;;14.70;99.90;;;;;;5079108;28;20032;-81
2023/06/10 01:48:12;;;;;;;11.38;4.50;;;14.70;99.90;;;;;;5084206;28;20027;-81
2023/06/10 01:50:38;;;;;;;11.50;4.50;;;14.60;99.90;;;;;;5082536;28;20115;-81
2023/06/10 01:53:05;;;;;;;10.52;4.53;;;14.60;99.90;;;;;;5080803;28;20401;-82
2023/06/10 01:55:30;;;;;;;8.32;4.63;;;14.50;99.90;;;;;;5086269;28;20020;-81
2023/06/10 01:57:56;;;;;;;14.70;4.95;;;14.50;99.90;;;;;;5078490;28;20029;-82
2023/06/10 02:00:21;;;;;;;7.55;4.07;;;14.40;99.90;;;;;;5082173;28;20162;-82
2023/06/10 02:02:47;;;;;;;10.77;5.32;;;14.40;99.90;;;;;;5073437;28;20047;-82
2023/06/10 02:05:13;;;;;;;13.23;5.10;;;14.40;99.90;;;;;;5079959;28;20374;-81
2023/06/10 02:07:38;;;;;;;11.93;5.30;;;14.30;99.90;;;;;;5084771;28;20046;-82
2023/06/10 02:10:05;;;;;;;9.50;5.05;;;14.30;99.90;;;;;;5082340;28;20059;-82
2023/06/10 02:12:30;;;;;;;11.45;5.20;;;14.30;99.90;;;;;;5084815;28;20060;-81
2023/06/10 02:14:56;;;;;;;7.30;4.43;;;14.20;99.90;;;;;;5081005;28;20512;-81
2023/06/10 02:17:26;;;;;;;10.35;5.00;;;14.20;99.90;;;;;;5078940;28;20052;-82
2023/06/10 02:19:54;;;;;;;7.15;4.40;;;14.20;99.90;;;;;;5081688;28;20381;-82
2023/06/10 02:22:21;;;;;;;6.22;4.45;;;14.20;99.90;;;;;;5078327;28;20020;-82
2023/06/10 02:24:47;;;;;;;14.32;5.95;;;14.20;99.90;;;;;;5086391;28;20051;-82
2023/06/10 02:27:13;;;;;;;10.52;5.60;;;14.20;99.90;;;;;;5074904;28;20483;-82
2023/06/10 02:29:38;;;;;;;12.02;5.53;;;14.10;99.90;;;;;;5084531;28;20024;-82
2023/06/10 02:32:04;;;;;;;11.65;5.57;;;14.10;99.90;;;;;;5083895;28;20047;-81
2023/06/10 02:34:30;;;;;;;13.75;5.05;;;14.00;99.90;;;;;;5082746;28;20024;-82
2023/06/10 02:36:56;;;;;;;8.07;4.90;;;14.00;99.90;;;;;;5075967;28;20024;-82
2023/06/10 02:39:22;;;;;;;15.40;5.82;;;14.00;99.90;;;;;;5079970;28;20042;-82
2023/06/10 02:41:51;;;;;;;11.18;5.82;;;14.00;99.90;;;;;;5085039;28;20024;-81
2023/06/10 02:44:18;;;;;;;13.32;6.82;;;14.00;99.90;;;;;;5079767;28;20060;-81
2023/06/10 02:46:44;;;;;;;9.88;5.25;;;14.00;99.90;;;;;;5080614;28;20108;-81
2023/06/10 02:49:10;;;;;;;12.43;5.15;;;14.00;99.90;;;;;;5082636;28;20462;-81
2023/06/10 02:51:36;;;;;;;6.75;4.70;;;14.00;99.90;;;;;;5078315;28;20037;-81
2023/06/10 02:54:05;;;;;;;10.23;5.38;;;14.00;99.90;;;;;;5083401;28;20039;-81
2023/06/10 02:56:32;;;;;;;9.23;5.60;;;14.00;99.90;;;;;;5065136;28;20032;-81
2023/06/10 02:58:58;;;;;;;13.43;5.00;;;14.00;99.90;;;;;;5085978;28;20020;-81
2023/06/10 03:01:24;;;;;;;13.48;5.80;;;13.90;99.90;;;;;;5082528;28;20031;-81
2023/06/10 03:03:50;;;;;;;12.70;5.00;;;13.90;99.90;;;;;;5083988;28;20109;-82
2023/06/10 03:06:15;;;;;;;11.02;5.82;;;13.80;99.90;;;;;;5080682;28;20028;-81
2023/06/10 03:08:41;;;;;;;13.60;6.03;;;13.80;99.90;;;;;;5084167;28;20106;-82
2023/06/10 03:11:07;;;;;;;8.88;4.57;;;13.80;99.90;;;;;;5075090;28;20075;-82
2023/06/10 03:13:32;;;;;;;12.85;5.63;;;13.80;99.90;;;;;;5084006;28;21373;-82
2023/06/10 03:15:59;;;;;;;12.35;6.15;;;13.70;99.90;;;;;;5084526;28;20047;-82
2023/06/10 03:18:27;;;;;;;11.57;5.13;;;13.70;99.90;;;;;;5079451;28;20023;-82
2023/06/10 03:20:54;;;;;;;12.20;5.63;;;13.60;99.90;;;;;;5077979;28;20031;-82
2023/06/10 03:23:20;;;;;;;12.15;5.60;;;13.60;99.90;;;;;;5081077;28;20032;-81
2023/06/10 03:25:46;;;;;;;16.20;6.53;;;13.60;99.90;;;;;;5080933;28;20070;-82
2023/06/10 03:28:11;;;;;;;13.60;6.00;;;13.60;99.90;;;;;;5077884;28;20108;-81
2023/06/10 03:30:38;;;;;;;13.32;5.72;;;13.60;99.90;;;;;;5079168;28;20026;-81
2023/06/10 03:33:03;;;;;;;16.40;6.38;;;13.60;99.90;;;;;;5081425;28;20037;-82
2023/06/10 03:35:29;;;;;;;9.48;5.40;;;13.50;99.90;;;;;;5077844;28;20074;-81
2023/06/10 03:37:55;;;;;;;15.23;6.43;;;13.50;99.90;;;;;;5080264;28;20123;-82
2023/06/10 03:40:21;;;;;;;12.60;5.85;;;13.50;99.90;;;;;;5080690;28;20115;-82
2023/06/10 03:42:46;;;;;;;12.10;6.22;;;13.50;99.90;;;;;;5077401;28;20460;-81
2023/06/10 03:45:12;;;;;;;10.35;5.60;;;13.60;99.90;;;;;;5081208;28;20474;-82
2023/06/10 03:47:40;;;;;;;10.23;5.88;;;13.50;99.90;;;;;;5077546;28;20028;-81
2023/06/10 03:50:06;;;;;;;12.40;5.88;;;13.60;99.90;;;;;;5079215;28;20119;-82
2023/06/10 03:52:32;;;;;;;15.65;7.10;;;13.60;99.90;;;;;;5085209;28;20434;-82
2023/06/10 03:54:57;;;;;;;8.98;5.68;;;13.60;99.90;;;;;;5078978;28;20110;-82
2023/06/10 03:57:23;;;;;;;9.55;5.43;;;13.60;99.90;;;;;;5080981;28;20078;-82
2023/06/10 03:59:48;;;;;;;13.15;5.03;;;13.60;99.90;;;;;;5080011;28;20037;-81
2023/06/10 04:02:14;;;;;;;10.15;4.68;;;13.70;99.90;;;;;;5082192;28;20020;-81
2023/06/10 04:04:40;;;;;;;12.00;6.10;;;13.80;99.90;;;;;;5082084;28;20024;-82
2023/06/10 04:07:08;;;;;;;19.17;7.10;;;13.80;99.90;;;;;;5085151;28;20464;-82
2023/06/10 04:09:33;;;;;;;13.48;6.20;;;13.80;99.90;;;;;;5078075;28;20032;-81
2023/06/10 04:11:59;;;;;;;21.73;7.30;;;13.80;99.90;;;;;;5086078;28;20052;-82
2023/06/10 04:14:24;;;;;;;17.08;7.45;;;13.90;99.90;;;;;;5085850;28;20085;-82
2023/06/10 04:16:51;;;;;;;14.60;6.43;;;13.90;99.90;;;;;;5085212;28;20390;-82
2023/06/10 04:19:16;;;;;;;16.35;6.70;;;14.00;99.90;;;;;;5084000;28;20440;-82
2023/06/10 04:21:42;;;;;;;18.92;7.18;;;14.00;99.90;;;;;;5086406;28;20028;-81
2023/06/10 04:24:07;;;;;;;16.52;7.05;;;14.20;99.90;;;;;;5086188;28;20535;-82
2023/06/10 04:26:35;;;;;;;12.75;7.07;;;14.20;99.90;;;;;;5082884;28;20424;-82
2023/06/10 04:29:01;;;;;;;16.42;7.53;;;14.30;99.90;;;;;;5080717;28;20109;-82
2023/06/10 04:31:26;;;;;;;23.45;6.97;;;14.30;99.90;;;;;;5080409;28;20489;-82
2023/06/10 04:33:52;;;;;;;19.77;7.43;;;14.30;99.90;;;;;;5083315;28;20047;-82
2023/06/10 04:36:17;;;;;;;24.73;8.07;;;14.30;99.90;;;;;;5082719;28;20027;-82
2023/06/10 04:38:43;;;;;;;16.70;7.30;;;14.30;99.90;;;;;;5081308;28;20036;-82
2023/06/10 04:41:09;;;;;;;23.30;8.45;;;14.40;99.90;;;;;;5084836;28;20024;-82
2023/06/10 04:43:34;;;;;;;19.23;8.07;;;14.40;99.90;;;;;;5085135;28;20031;-84
2023/06/10 04:46:00;;;;;;;17.35;7.35;;;14.50;99.90;;;;;;5081086;28;20504;-82
2023/06/10 04:48:26;;;;;;;20.25;8.93;;;14.50;99.90;;;;;;5077152;28;20056;-83
2023/06/10 04:50:51;;;;;;;23.88;8.73;;;14.50;99.90;;;;;;5087313;28;20031;-82
2023/06/10 04:53:17;;;;;;;19.23;8.15;;;14.60;99.90;;;;;;5084393;28;20492;-82
2023/06/10 04:55:43;;;;;;;17.23;8.45;;;14.60;99.90;;;;;;5082979;28;20476;-82
2023/06/10 04:58:09;;;;;;;19.83;8.65;;;14.50;99.90;;;;;;5083505;28;20539;-82
2023/06/10 05:00:34;;;;;;;20.13;8.07;;;14.50;99.90;;;;;;5083919;28;20107;-82
2023/06/10 05:03:00;;;;;;;21.20;7.90;;;14.60;99.90;;;;;;5076969;28;20024;-82
2023/06/10 05:05:25;;;;;;;14.48;6.93;;;14.60;99.90;;;;;;5083765;28;20035;-82
2023/06/10 05:07:51;;;;;;;16.70;7.25;;;14.60;99.90;;;;;;5084813;28;20024;-82
2023/06/10 05:10:17;;;;;;;20.33;7.80;;;14.60;99.90;;;;;;5086389;28;20086;-82
2023/06/10 05:12:42;;;;;;;17.45;6.85;;;14.70;99.90;;;;;;5082591;28;20060;-82
2023/06/10 05:15:08;;;;;;;15.93;7.70;;;14.70;99.90;;;;;;5082424;28;20060;-82
2023/06/10 05:17:37;;;;;;;11.02;6.03;;;14.70;99.90;;;;;;5083637;28;20366;-82
2023/06/10 05:20:04;;;;;;;11.63;6.85;;;14.70;99.90;;;;;;5083490;28;20035;-82
2023/06/10 05:22:30;;;;;;;13.57;7.10;;;14.70;99.90;;;;;;5085766;28;20028;-82
2023/06/10 05:24:55;;;;;;;14.60;6.88;;;14.70;99.90;;;;;;5081006;28;20386;-83
2023/06/10 05:27:22;;;;;;;13.23;7.18;;;14.80;99.90;;;;;;5083561;28;20020;-82
2023/06/10 05:29:47;;;;;;;20.05;8.43;;;14.80;99.90;;;;;;5082311;28;20024;-82
2023/06/10 05:32:13;;;;;;;18.10;8.40;;;14.80;99.90;;;;;;5076813;28;20112;-82
2023/06/10 05:34:39;;;;;;;23.25;8.23;;;14.80;99.90;;;;;;5082585;28;20032;-82
2023/06/10 05:37:05;;;;;;;20.98;9.60;;;14.80;99.90;;;;;;5082073;28;20031;-82
2023/06/10 05:39:30;;;;;;;15.25;8.27;;;14.80;99.90;;;;;;5083129;28;20557;-82
2023/06/10 05:41:58;;;;;;;17.35;8.32;;;14.80;99.90;;;;;;5083172;28;20110;-83
2023/06/10 05:44:24;;;;;;;21.50;8.73;;;14.80;99.90;;;;;;5080003;28;20048;-82
2023/06/10 05:46:50;;;;;;;17.45;8.10;;;14.80;99.90;;;;;;5079296;28;20548;-83
2023/06/10 05:49:16;;;;;;;26.50;10.38;;;14.90;99.90;;;;;;5084363;28;20055;-82
2023/06/10 05:51:41;;;;;;;31.55;11.63;;;14.90;99.90;;;;;;5084122;28;20063;-83
2023/06/10 05:54:07;;;;;;;21.20;8.80;;;15.00;99.90;;;;;;5080051;28;20018;-83
2023/06/10 05:56:33;;;;;;;23.90;10.68;;;15.00;99.90;;;;;;5085592;28;20032;-82
2023/06/10 05:58:58;;;;;;;26.42;10.57;;;15.00;99.90;;;;;;5076024;28;20132;-82
2023/06/10 06:01:24;;;;;;;27.58;10.15;;;15.00;99.90;;;;;;5084337;28;20035;-82
2023/06/10 06:03:50;;;;;;;19.83;9.18;;;15.00;99.90;;;;;;5083685;28;20035;-83
2023/06/10 06:06:15;;;;;;;25.13;10.68;;;14.90;99.90;;;;;;5085009;28;20373;-83
2023/06/10 06:08:41;;;;;;;18.38;9.68;;;14.90;99.90;;;;;;5082020;28;20152;-82
2023/06/10 06:11:06;;;;;;;22.75;10.40;;;14.90;99.90;;;;;;5082354;28;20102;-82
2023/06/10 06:13:33;;;;;;;27.58;11.13;;;15.00;99.90;;;;;;5077748;28;20040;-83
2023/06/10 06:15:58;;;;;;;24.55;9.93;;;15.00;99.90;;;;;;5082120;28;20055;-82
2023/06/10 06:18:24;;;;;;;15.32;8.88;;;15.00;99.90;;;;;;5081325;28;20063;-83
2023/06/10 06:20:51;;;;;;;18.95;11.05;;;15.00;99.90;;;;;;5085385;28;20074;-82
2023/06/10 06:23:17;;;;;;;15.30;9.13;;;15.00;99.90;;;;;;5078831;28;20027;-84
2023/06/10 06:25:42;;;;;;;14.57;8.65;;;15.00;99.90;;;;;;5083087;28;20024;-82
2023/06/10 06:28:09;;;;;;;18.52;8.95;;;15.00;99.90;;;;;;5079003;28;20024;-83
2023/06/10 06:30:35;;;;;;;15.48;9.05;;;15.00;99.90;;;;;;5075734;28;20036;-83
2023/06/10 06:33:01;;;;;;;19.55;8.77;;;15.10;99.90;;;;;;5067075;28;20546;-83
2023/06/10 06:35:27;;;;;;;16.13;8.73;;;15.10;99.90;;;;;;5080445;28;20523;-83
2023/06/10 06:37:52;;;;;;;31.58;11.40;;;15.10;99.90;;;;;;5083406;28;20020;-83
2023/06/10 06:40:18;;;;;;;18.63;10.00;;;15.10;99.90;;;;;;5085691;28;20036;-83
2023/06/10 06:42:44;;;;;;;19.70;10.02;;;15.20;99.90;;;;;;5075420;28;20406;-83
2023/06/10 06:45:10;;;;;;;18.48;9.60;;;15.20;99.90;;;;;;5083438;28;20035;-83
2023/06/10 06:47:35;;;;;;;21.60;10.90;;;15.20;99.90;;;;;;5083076;28;20032;-83
2023/06/10 06:50:02;;;;;;;26.00;10.27;;;15.20;99.90;;;;;;5084188;28;20027;-83
2023/06/10 06:52:27;;;;;;;19.05;8.88;;;15.30;99.90;;;;;;5085190;28;20036;-83
2023/06/10 06:54:53;;;;;;;16.52;8.73;;;15.30;99.90;;;;;;5084739;28;20032;-83
2023/06/10 06:57:18;;;;;;;23.75;10.65;;;15.30;99.90;;;;;;5082580;28;20024;-83
2023/06/10 06:59:44;;;;;;;21.33;10.23;;;15.40;99.90;;;;;;5078582;28;20020;-83
2023/06/10 07:02:10;;;;;;;26.88;10.45;;;15.50;99.90;;;;;;5087418;28;20039;-82
2023/06/10 07:04:36;;;;;;;21.77;10.27;;;15.50;99.90;;;;;;5083512;28;20123;-83
2023/06/10 07:07:03;;;;;;;24.45;10.00;;;15.50;99.90;;;;;;5086134;28;20111;-83
2023/06/10 07:09:29;;;;;;;21.38;10.15;;;15.60;99.90;;;;;;5066131;28;20047;-83
2023/06/10 07:11:54;;;;;;;22.98;10.45;;;15.70;99.90;;;;;;5086025;28;20489;-83
2023/06/10 07:14:20;;;;;;;15.57;9.32;;;15.70;99.90;;;;;;5078250;28;20085;-83
2023/06/10 07:16:46;;;;;;;23.33;10.65;;;15.70;99.90;;;;;;5082098;28;20052;-83
2023/06/10 07:19:15;;;;;;;25.98;11.35;;;15.70;99.90;;;;;;5080849;28;20020;-82
2023/06/10 07:21:41;;;;;;;21.20;9.30;;;15.80;99.90;;;;;;5083752;28;20496;-83
2023/06/10 07:24:07;;;;;;;21.58;9.50;;;15.80;99.90;;;;;;5078459;28;20111;-83
2023/06/10 07:26:32;;;;;;;26.55;12.68;;;15.80;99.90;;;;;;5082666;28;20028;-83
2023/06/10 07:28:58;;;;;;;23.85;10.95;;;15.90;99.90;;;;;;5076162;28;20205;-83
2023/06/10 07:31:24;;;;;;;23.10;10.40;;;15.90;99.90;;;;;;5080020;28;20081;-83
2023/06/10 07:33:50;;;;;;;18.42;9.80;;;16.00;99.90;;;;;;5083610;28;20112;-83
2023/06/10 07:36:15;;;;;;;16.33;8.70;;;15.90;99.90;;;;;;5075515;28;20103;-83
2023/06/10 07:38:42;;;;;;;19.60;9.82;;;16.00;99.90;;;;;;5065428;28;20491;-83
2023/06/10 07:41:08;;;;;;;19.30;9.50;;;16.00;99.90;;;;;;5072276;28;20023;-81
2023/06/10 07:43:34;;;;;;;23.33;11.10;;;15.90;99.90;;;;;;5089976;28;20043;-80
2023/06/10 07:46:00;;;;;;;20.85;10.55;;;16.00;99.90;;;;;;5078291;28;20020;-80
2023/06/10 07:48:25;;;;;;;22.40;10.88;;;16.00;99.90;;;;;;5079690;28;20047;-80
2023/06/10 07:50:52;;;;;;;20.65;10.75;;;15.90;99.90;;;;;;5090625;28;20059;-81
2023/06/10 07:53:18;;;;;;;19.27;10.68;;;16.00;99.90;;;;;;5079578;28;20043;-81
2023/06/10 07:55:43;;;;;;;28.15;11.80;;;16.10;99.90;;;;;;5081890;28;20039;-81
2023/06/10 07:58:10;;;;;;;23.13;11.32;;;16.20;99.90;;;;;;5087226;28;20028;-81
2023/06/10 08:00:35;;;;;;;15.68;9.27;;;16.30;99.90;;;;;;5084131;28;20040;-81
2023/06/10 08:03:01;;;;;;;17.23;10.23;;;16.30;99.90;;;;;;5083125;28;20480;-81
2023/06/10 08:05:27;;;;;;;19.55;10.63;;;16.40;99.90;;;;;;5085068;28;20051;-81
2023/06/10 08:07:52;;;;;;;17.42;9.93;;;16.50;99.90;;;;;;5087838;28;20031;-81
2023/06/10 08:10:21;;;;;;;28.10;11.77;;;16.60;99.90;;;;;;5084634;28;20079;-81
2023/06/10 08:12:46;;;;;;;18.73;10.25;;;16.70;99.90;;;;;;5084230;28;20044;-81
2023/06/10 08:15:12;;;;;;;19.95;10.10;;;16.70;99.90;;;;;;5079743;28;20470;-81
2023/06/10 08:17:38;;;;;;;21.73;10.98;;;16.70;99.90;;;;;;5082146;28;20426;-81
2023/06/10 08:20:05;;;;;;;20.23;10.05;;;16.80;99.90;;;;;;5087281;28;20485;-81
2023/06/10 08:22:31;;;;;;;20.20;11.40;;;16.90;99.90;;;;;;5081946;28;20032;-81
2023/06/10 08:24:56;;;;;;;21.65;10.27;;;17.00;99.90;;;;;;5087533;28;20441;-81
2023/06/10 08:27:22;;;;;;;20.52;9.65;;;17.10;99.90;;;;;;5084181;28;20028;-81
2023/06/10 08:29:48;;;;;;;27.55;11.90;;;17.10;99.90;;;;;;5084756;28;20473;-81
2023/06/10 08:32:14;;;;;;;24.90;9.07;;;17.20;99.90;;;;;;5080722;28;20039;-82
2023/06/10 08:34:39;;;;;;;18.75;10.25;;;17.30;99.90;;;;;;5088404;28;20427;-82
2023/06/10 08:37:05;;;;;;;24.58;10.05;;;17.40;99.90;;;;;;5081320;28;20150;-81
2023/06/10 08:39:33;;;;;;;19.42;9.88;;;17.40;99.90;;;;;;5086188;28;20043;-81
2023/06/10 08:42:25;;;;;;;26.42;12.55;;;17.60;99.90;;;;;;5087001;28;20028;-84
2023/06/10 08:44:55;;;;;;;21.80;10.82;;;17.60;99.90;;;;;;5072649;28;20513;-87
2023/06/10 08:47:23;;;;;;;31.67;10.32;;;17.80;99.90;;;;;;5079131;28;20038;-86
2023/06/10 08:49:48;;;;;;;25.02;10.75;;;17.90;99.90;;;;;;5065089;28;20024;-87
2023/06/10 08:52:17;;;;;;;17.90;10.07;;;18.00;99.90;;;;;;5084444;28;20123;-87
2023/06/10 08:54:52;;;;;;;24.10;10.10;;;18.00;99.90;;;;;;5083892;28;20032;-87
2023/06/10 08:57:21;;;;;;;21.35;9.48;;;18.20;99.90;;;;;;5079725;28;20032;-87
2023/06/10 08:59:47;;;;;;;16.25;9.13;;;18.20;99.90;;;;;;5084553;28;20030;-87
2023/06/10 09:02:15;;;;;;;20.52;9.85;;;18.30;99.90;;;;;;5080631;28;20035;-87
2023/06/10 09:04:43;;;;;;;20.67;10.23;;;18.40;99.90;;;;;;5078844;28;20032;-86
2023/06/10 09:07:10;;;;;;;21.13;10.05;;;18.40;99.90;;;;;;5082241;28;20035;-87
2023/06/10 09:09:36;;;;;;;19.98;9.75;;;18.60;99.90;;;;;;5084700;28;20042;-86
2023/06/10 09:12:03;;;;;;;19.17;8.80;;;18.60;99.90;;;;;;5079939;28;20040;-86
2023/06/10 09:14:29;;;;;;;26.45;10.98;;;18.70;99.90;;;;;;5085017;28;20028;-86
2023/06/10 09:16:57;;;;;;;18.50;10.43;;;18.80;99.90;;;;;;5078127;28;20090;-87
2023/06/10 09:19:25;;;;;;;16.77;10.20;;;18.80;99.90;;;;;;5066302;28;20579;-86
2023/06/10 09:21:50;;;;;;;16.95;10.52;;;18.80;99.90;;;;;;5089002;28;20128;-86
2023/06/10 09:24:16;;;;;;;26.33;10.68;;;18.90;99.90;;;;;;5081960;28;20109;-86
2023/06/10 09:26:43;;;;;;;19.80;10.55;;;18.90;99.90;;;;;;5078712;28;20335;-86
2023/06/10 09:29:11;;;;;;;23.13;11.75;;;18.90;99.90;;;;;;5079022;28;20056;-86
2023/06/10 09:31:38;;;;;;;18.15;9.90;;;19.00;99.90;;;;;;5078909;28;20537;-85
2023/06/10 09:34:09;;;;;;;20.60;9.88;;;19.10;99.90;;;;;;5077965;28;20032;-87
2023/06/10 09:36:36;;;;;;;13.90;9.10;;;19.20;99.90;;;;;;5081393;28;20455;-87
2023/06/10 09:39:02;;;;;;;15.50;8.70;;;19.20;99.90;;;;;;5087840;28;20031;-86
2023/06/10 09:41:35;;;;;;;13.60;8.88;;;19.30;99.90;;;;;;5079588;28;20031;-86
2023/06/10 09:44:02;;;;;;;18.80;8.95;;;19.40;99.90;;;;;;5086459;28;20422;-86
2023/06/10 09:46:32;;;;;;;23.50;10.48;;;19.50;99.90;;;;;;5082551;28;20020;-86
2023/06/10 09:48:58;;;;;;;14.80;9.32;;;19.60;99.90;;;;;;5079582;28;20028;-85
2023/06/10 09:51:24;;;;;;;20.70;10.75;;;19.60;99.90;;;;;;5083832;28;20032;-86
2023/06/10 09:53:51;;;;;;;22.02;9.45;;;19.70;99.90;;;;;;5084470;28;20027;-85
2023/06/10 09:56:18;;;;;;;22.63;10.60;;;19.70;99.90;;;;;;5079122;28;20061;-86
2023/06/10 09:59:15;;;;;;;19.73;10.65;;;19.80;99.90;;;;;;5083490;28;20239;-84
2023/06/10 10:01:42;;;;;;;22.33;9.20;;;19.90;99.90;;;;;;5050864;28;20032;-86
2023/06/10 10:04:08;;;;;;;17.48;8.80;;;20.00;99.90;;;;;;5082163;28;20115;-86
2023/06/10 10:06:35;;;;;;;19.67;10.95;;;20.10;99.90;;;;;;5082676;28;20111;-87
2023/06/10 10:09:00;;;;;;;14.85;9.75;;;20.10;99.90;;;;;;5062874;28;20435;-86
2023/06/10 10:11:27;;;;;;;21.85;10.98;;;20.20;99.90;;;;;;5060875;28;21385;-86
2023/06/10 10:13:53;;;;;;;20.65;11.35;;;20.40;99.90;;;;;;5084263;28;20374;-86
2023/06/10 10:16:45;;;;;;;17.42;9.73;;;20.50;99.90;;;;;;5085705;28;20074;-86
2023/06/10 10:19:18;;;;;;;24.13;9.65;;;20.60;99.90;;;;;;5078121;28;20065;-86
2023/06/10 10:21:52;;;;;;;15.45;8.48;;;20.70;99.90;;;;;;5077000;28;20682;-86
2023/06/10 10:24:23;;;;;;;20.02;9.30;;;20.80;99.90;;;;;;5084611;28;20533;-85
2023/06/10 10:26:50;;;;;;;25.75;11.23;;;20.80;99.90;;;;;;5085785;28;20035;-86
2023/06/10 10:29:38;;;;;;;19.73;10.45;;;20.90;99.90;;;;;;5084212;28;20020;-87
2023/06/10 10:32:06;;;;;;;20.00;9.35;;;21.00;99.90;;;;;;5082710;28;20040;-85
2023/06/10 10:35:07;;;;;;;15.40;9.38;;;21.10;99.90;;;;;;5084087;28;20032;-86
2023/06/10 10:37:33;;;;;;;16.13;9.27;;;21.10;99.90;;;;;;5050358;28;20067;-85
2023/06/10 10:40:01;;;;;;;18.33;9.38;;;21.20;99.90;;;;;;5080411;28;20047;-85
2023/06/10 10:42:27;;;;;;;19.77;9.23;;;21.30;99.90;;;;;;5080250;28;20024;-86
2023/06/10 10:44:53;;;;;;;14.98;9.45;;;21.40;99.90;;;;;;5081685;28;20111;-85
2023/06/10 10:47:22;;;;;;;19.42;9.25;;;21.40;99.90;;;;;;5081070;28;20051;-85
2023/06/10 10:49:53;;;;;;;15.27;9.02;;;21.50;99.90;;;;;;5083790;28;20481;-87
2023/06/10 10:52:19;;;;;;;19.08;9.65;;;21.50;99.90;;;;;;5076740;28;20047;-85
2023/06/10 10:54:50;;;;;;;18.23;9.25;;;21.60;99.90;;;;;;5086148;28;20405;-85
2023/06/10 10:57:19;;;;;;;12.70;8.23;;;21.70;99.90;;;;;;5075429;28;20051;-85
2023/06/10 10:59:46;;;;;;;19.73;10.80;;;21.60;99.90;;;;;;5079814;28;20035;-85
2023/06/10 11:02:35;;;;;;;20.52;9.60;;;21.70;99.90;;;;;;5079977;28;20055;-84
2023/06/10 11:05:01;;;;;;;14.82;9.70;;;21.70;99.90;;;;;;5083625;28;20489;-85
2023/06/10 11:07:34;;;;;;;22.70;9.55;;;21.80;99.90;;;;;;5078941;28;20050;-85
2023/06/10 11:10:02;;;;;;;12.95;9.18;;;21.90;99.90;;;;;;5079260;28;20048;-84
2023/06/10 11:12:41;;;;;;;21.33;9.05;;;21.90;99.90;;;;;;5079157;28;20046;-84
2023/06/10 11:15:07;;;;;;;14.85;8.55;;;21.90;99.90;;;;;;5073689;28;20546;-85
2023/06/10 11:17:33;;;;;;;13.02;7.88;;;22.00;99.90;;;;;;5077303;28;20032;-83
2023/06/10 11:19:59;;;;;;;14.40;7.97;;;22.00;99.90;;;;;;5079064;28;20131;-84
2023/06/10 11:22:24;;;;;;;13.10;7.60;;;22.10;99.90;;;;;;5076689;28;20394;-84
2023/06/10 11:24:50;;;;;;;15.68;8.30;;;22.20;99.90;;;;;;5072308;28;20028;-85
2023/06/10 11:27:20;;;;;;;13.65;7.72;;;22.20;99.90;;;;;;5076723;28;20446;-84
2023/06/10 11:30:19;;;;;;;14.05;7.50;;;22.30;99.90;;;;;;5076341;28;20032;-84
2023/06/10 11:32:45;;;;;;;12.55;7.30;;;22.50;99.90;;;;;;5085212;28;20199;-84
2023/06/10 11:35:11;;;;;;;16.00;7.95;;;22.50;99.90;;;;;;5073412;28;20032;-92
2023/06/10 11:37:40;;;;;;;17.48;6.97;;;22.60;99.90;;;;;;5077932;28;20119;-93
2023/06/10 11:40:07;;;;;;;11.07;7.10;;;22.60;99.90;;;;;;5083329;28;20485;-90
2023/06/10 11:42:33;;;;;;;11.63;7.22;;;22.80;99.90;;;;;;5082033;28;20296;-92
2023/06/10 11:44:59;;;;;;;16.17;8.60;;;22.90;99.90;;;;;;5084670;28;20027;-92
2023/06/10 11:47:26;;;;;;;12.90;7.65;;;23.00;99.90;;;;;;5075079;28;20498;-92
2023/06/10 11:49:58;;;;;;;13.05;7.72;;;23.10;99.90;;;;;;5076653;28;20027;-91
2023/06/10 11:52:39;;;;;;;12.00;7.22;;;23.30;99.90;;;;;;5072027;28;20059;-90
2023/06/10 11:55:05;;;;;;;10.93;7.60;;;23.40;99.90;;;;;;5075109;28;20075;-92
2023/06/10 11:57:35;;;;;;;16.77;7.75;;;23.40;99.90;;;;;;5077754;28;20039;-92
2023/06/10 12:00:08;;;;;;;12.15;7.20;;;23.40;99.90;;;;;;5078320;28;20421;-94
2023/06/10 12:02:33;;;;;;;14.75;6.63;;;23.40;99.90;;;;;;5085359;28;20043;-93
2023/06/10 12:05:13;;;;;;;12.43;7.32;;;23.40;99.90;;;;;;5083536;28;20032;-90
2023/06/10 12:07:38;;;;;;;11.27;7.20;;;23.50;99.90;;;;;;5083516;28;20073;-92
2023/06/10 12:10:04;;;;;;;14.68;8.18;;;23.60;99.90;;;;;;5082914;28;20041;-91
2023/06/10 12:12:30;;;;;;;10.77;6.60;;;23.60;99.90;;;;;;5080453;28;20459;-94
2023/06/10 12:14:58;;;;;;;12.40;7.10;;;23.60;99.90;;;;;;5084096;28;20028;-91
2023/06/10 12:17:32;;;;;;;9.07;6.70;;;23.70;99.90;;;;;;5084787;28;20016;-92
2023/06/10 12:19:59;;;;;;;10.63;6.50;;;23.80;99.90;;;;;;5083470;28;20020;-93
2023/06/10 12:22:26;;;;;;;14.57;6.70;;;23.90;99.90;;;;;;5083449;28;20132;-89
2023/06/10 12:24:59;;;;;;;10.20;6.43;;;23.90;99.90;;;;;;5078780;28;20062;-92
2023/06/10 12:27:25;;;;;;;11.98;6.50;;;24.00;99.90;;;;;;5078855;28;20036;-88
2023/06/10 12:29:55;;;;;;;10.98;7.10;;;24.00;99.90;;;;;;5083876;28;20024;-91
2023/06/10 12:32:25;;;;;;;13.98;6.43;;;24.10;99.90;;;;;;5084261;28;20040;-93
2023/06/10 12:35:01;;;;;;;12.98;6.63;;;24.20;99.90;;;;;;5082521;28;20016;-90
2023/06/10 12:37:27;;;;;;;11.60;6.57;;;24.20;99.90;;;;;;5087685;28;20478;-90